Time;durP1;ratioP1;P1;durP2;ratioP2;P2;SDS_P1;SDS_P2;PMS_P1;PMS_P2;Temp;Humidity;BMP_temperature;BMP_pressure;BME280_temperature;BME280_humidity;BME280_pressure;Samples;Min_cycle;Max_cycle;Signal;HPM_P1;HPM_P2
2021/12/06 00:00:46;;;;;;;150.30;66.53;;;5.80;99.90;;;;;;5053188;28;20460;-74
2021/12/06 00:03:17;;;;;;;136.77;61.03;;;5.80;99.90;;;;;;5052835;28;20032;-73
2021/12/06 00:05:43;;;;;;;100.57;46.27;;;5.80;99.90;;;;;;5053335;28;20028;-73
2021/12/06 00:08:09;;;;;;;120.32;51.90;;;5.80;99.90;;;;;;5052622;28;20021;-73
2021/12/06 00:10:35;;;;;;;113.72;51.53;;;5.80;99.90;;;;;;5051785;28;20047;-74
2021/12/06 00:13:01;;;;;;;104.47;48.20;;;5.70;99.90;;;;;;5052229;28;20028;-73
2021/12/06 00:15:31;;;;;;;98.93;44.17;;;5.70;99.90;;;;;;5051552;28;20399;-73
2021/12/06 00:17:57;;;;;;;87.68;41.55;;;5.70;99.90;;;;;;5051911;28;20017;-74
2021/12/06 00:20:23;;;;;;;97.03;43.13;;;5.70;99.90;;;;;;5051856;28;20021;-74
2021/12/06 00:22:49;;;;;;;100.75;52.30;;;5.70;99.90;;;;;;5051584;28;20051;-74
2021/12/06 00:25:15;;;;;;;104.60;49.53;;;5.70;99.90;;;;;;5051851;28;20096;-74
2021/12/06 00:27:41;;;;;;;103.32;53.15;;;5.70;99.90;;;;;;5051490;28;20025;-74
2021/12/06 00:30:11;;;;;;;90.70;45.78;;;5.70;99.90;;;;;;5051227;28;20048;-73
2021/12/06 00:32:39;;;;;;;90.95;44.40;;;5.70;99.90;;;;;;5050494;28;20029;-73
2021/12/06 00:35:06;;;;;;;95.35;43.67;;;5.70;99.90;;;;;;5052312;28;20033;-73
2021/12/06 00:37:41;;;;;;;95.35;46.22;;;5.70;99.90;;;;;;5052135;28;20021;-73
2021/12/06 00:40:09;;;;;;;97.85;44.88;;;5.60;99.90;;;;;;5052326;28;20082;-73
2021/12/06 00:42:35;;;;;;;100.50;48.80;;;5.70;99.90;;;;;;5052828;28;20032;-73
2021/12/06 00:45:05;;;;;;;93.82;44.60;;;5.60;99.90;;;;;;5052604;28;20040;-73
2021/12/06 00:47:30;;;;;;;91.43;43.63;;;5.60;99.90;;;;;;5052481;28;20066;-73
2021/12/06 00:49:56;;;;;;;105.55;47.90;;;5.60;99.90;;;;;;5052332;28;20099;-73
2021/12/06 00:52:23;;;;;;;86.10;41.25;;;5.60;99.90;;;;;;5052578;28;20444;-73
2021/12/06 00:54:49;;;;;;;80.32;39.63;;;5.60;99.90;;;;;;5052774;28;20025;-73
2021/12/06 00:57:15;;;;;;;80.38;41.40;;;5.60;99.90;;;;;;5052409;28;20044;-73
2021/12/06 00:59:41;;;;;;;80.72;40.22;;;5.60;99.90;;;;;;5052568;28;20045;-73
2021/12/06 01:02:10;;;;;;;94.82;44.42;;;5.60;99.90;;;;;;5052423;28;20025;-73
2021/12/06 01:04:38;;;;;;;82.82;40.35;;;5.60;99.90;;;;;;5052536;28;20111;-73
2021/12/06 01:07:05;;;;;;;98.80;41.80;;;5.60;99.90;;;;;;5052317;28;20127;-73
2021/12/06 01:09:31;;;;;;;87.15;39.45;;;5.60;99.90;;;;;;5052141;28;20103;-73
2021/12/06 01:11:57;;;;;;;85.35;38.63;;;5.60;99.90;;;;;;5052483;28;20021;-73
2021/12/06 01:14:23;;;;;;;98.57;42.28;;;5.60;99.90;;;;;;5053303;28;20029;-73
2021/12/06 01:16:49;;;;;;;87.03;39.53;;;5.60;99.90;;;;;;5056212;28;20060;-73
2021/12/06 01:19:15;;;;;;;99.40;44.03;;;5.60;99.90;;;;;;5056371;28;20032;-73
2021/12/06 01:24:09;;;;;;;90.30;40.67;;;5.60;99.90;;;;;;5055837;28;20024;-73
2021/12/06 01:29:24;;;;;;;84.43;41.13;;;5.60;99.90;;;;;;5056246;28;20025;-73
2021/12/06 01:39:52;;;;;;;74.82;36.80;;;5.60;99.90;;;;;;5056153;28;20056;-73
2021/12/06 01:42:18;;;;;;;82.45;38.63;;;5.60;99.90;;;;;;5056039;28;20053;-73
2021/12/06 01:44:47;;;;;;;89.68;40.58;;;5.60;99.90;;;;;;5055776;28;20079;-73
2021/12/06 01:47:27;;;;;;;98.97;45.33;;;5.60;99.90;;;;;;5055556;28;20414;-73
2021/12/06 01:50:06;;;;;;;93.80;42.70;;;5.60;99.90;;;;;;5055550;28;20082;-73
2021/12/06 01:52:36;;;;;;;88.47;41.92;;;5.60;99.90;;;;;;5055654;28;20051;-73
2021/12/06 01:55:06;;;;;;;134.23;55.10;;;5.60;99.90;;;;;;5055416;28;20024;-73
2021/12/06 01:57:31;;;;;;;114.10;48.35;;;5.60;99.90;;;;;;5055410;28;20036;-73
2021/12/06 01:59:58;;;;;;;100.70;45.47;;;5.60;99.90;;;;;;5055794;28;20032;-73
2021/12/06 02:02:26;;;;;;;119.43;49.83;;;5.60;99.90;;;;;;5055179;28;20021;-73
2021/12/06 02:04:53;;;;;;;100.93;45.22;;;5.60;99.90;;;;;;5055298;28;20025;-73
2021/12/06 02:07:22;;;;;;;94.50;43.97;;;5.50;99.90;;;;;;5055017;28;20463;-74
2021/12/06 02:09:49;;;;;;;92.63;44.28;;;5.50;99.90;;;;;;5055276;28;20356;-74
2021/12/06 02:12:15;;;;;;;87.97;42.97;;;5.50;99.90;;;;;;5055591;28;20016;-74
2021/12/06 02:14:54;;;;;;;72.38;38.50;;;5.50;99.90;;;;;;5055411;28;20108;-73
2021/12/06 02:17:25;;;;;;;71.90;37.33;;;5.50;99.90;;;;;;5055307;28;20032;-74
2021/12/06 02:19:58;;;;;;;81.80;39.03;;;5.50;99.90;;;;;;5054835;28;20037;-73
2021/12/06 02:22:28;;;;;;;77.35;36.85;;;5.50;99.90;;;;;;5055225;28;20025;-73
2021/12/06 02:24:56;;;;;;;85.03;40.17;;;5.50;99.90;;;;;;5054786;28;20025;-73
2021/12/06 02:27:26;;;;;;;80.95;41.20;;;5.50;99.90;;;;;;5054862;28;20025;-73
2021/12/06 02:29:54;;;;;;;80.90;38.17;;;5.50;99.90;;;;;;5054834;28;20052;-73
2021/12/06 02:32:21;;;;;;;83.05;39.47;;;5.50;99.90;;;;;;5055242;28;20017;-73
2021/12/06 02:34:50;;;;;;;76.40;38.22;;;5.50;99.90;;;;;;5055528;28;20052;-73
2021/12/06 02:37:19;;;;;;;88.43;41.78;;;5.40;99.90;;;;;;5055647;28;20028;-73
2021/12/06 02:39:46;;;;;;;87.43;44.70;;;5.40;99.90;;;;;;5055854;28;20024;-73
2021/12/06 02:42:15;;;;;;;94.35;44.05;;;5.40;99.90;;;;;;5055523;28;20083;-73
2021/12/06 02:44:42;;;;;;;92.68;43.75;;;5.50;99.90;;;;;;5055261;28;20021;-73
2021/12/06 02:47:08;;;;;;;86.13;38.90;;;5.40;99.90;;;;;;5055291;28;20025;-73
2021/12/06 02:49:34;;;;;;;84.95;38.35;;;5.40;99.90;;;;;;5055373;28;20087;-73
2021/12/06 02:52:00;;;;;;;80.88;36.30;;;5.40;99.90;;;;;;5055518;28;20439;-73
2021/12/06 02:54:27;;;;;;;75.25;34.40;;;5.30;99.90;;;;;;5054916;28;20460;-73
2021/12/06 02:59:21;;;;;;;79.25;39.13;;;5.30;99.90;;;;;;5054940;28;20126;-73
2021/12/06 03:01:52;;;;;;;86.60;37.42;;;5.30;99.90;;;;;;5054822;28;20056;-73
2021/12/06 03:04:18;;;;;;;85.53;38.80;;;5.20;99.90;;;;;;5055030;28;20448;-73
2021/12/06 03:06:47;;;;;;;83.15;37.22;;;5.20;99.90;;;;;;5055016;28;20032;-73
2021/12/06 03:09:18;;;;;;;80.38;37.20;;;5.20;99.90;;;;;;5055165;28;20029;-73
2021/12/06 03:11:51;;;;;;;74.95;33.45;;;5.20;99.90;;;;;;5055004;28;20017;-73
2021/12/06 03:14:26;;;;;;;69.72;33.00;;;5.20;99.90;;;;;;5055290;28;20033;-73
2021/12/06 03:16:54;;;;;;;72.53;34.65;;;5.20;99.90;;;;;;5054889;28;20491;-73
2021/12/06 03:19:21;;;;;;;71.78;35.83;;;5.20;99.90;;;;;;5055103;28;20024;-73
2021/12/06 03:21:47;;;;;;;65.53;32.70;;;5.20;99.90;;;;;;5054889;28;20025;-73
2021/12/06 03:24:13;;;;;;;68.18;31.05;;;5.20;99.90;;;;;;5054341;28;20024;-73
2021/12/06 03:26:41;;;;;;;62.03;29.92;;;5.20;99.90;;;;;;5054664;28;20035;-73
2021/12/06 03:29:07;;;;;;;60.53;28.70;;;5.10;99.90;;;;;;5054434;28;20520;-73
2021/12/06 03:31:34;;;;;;;63.15;29.08;;;5.10;99.90;;;;;;5054624;28;20076;-73
2021/12/06 03:34:00;;;;;;;58.63;29.35;;;5.10;99.90;;;;;;5054302;28;20024;-73
2021/12/06 03:36:28;;;;;;;61.47;29.33;;;5.10;99.90;;;;;;5053901;28;20032;-73
2021/12/06 03:38:55;;;;;;;65.35;30.40;;;5.10;99.90;;;;;;5054403;28;20017;-73
2021/12/06 03:41:23;;;;;;;60.20;29.65;;;5.10;99.90;;;;;;5054282;28;20049;-73
2021/12/06 03:43:50;;;;;;;64.80;30.50;;;5.10;99.90;;;;;;5054455;28;20394;-73
2021/12/06 03:46:18;;;;;;;70.28;33.88;;;5.10;99.90;;;;;;5054736;28;20037;-73
2021/12/06 03:48:45;;;;;;;83.32;36.13;;;5.10;99.90;;;;;;5053501;28;20025;-73
2021/12/06 03:51:11;;;;;;;69.05;32.35;;;5.10;99.90;;;;;;5053833;28;20029;-73
2021/12/06 03:53:37;;;;;;;132.18;54.95;;;5.10;99.90;;;;;;5053863;28;20025;-73
2021/12/06 03:56:04;;;;;;;74.80;36.72;;;5.10;99.90;;;;;;5053988;28;20025;-73
2021/12/06 03:58:30;;;;;;;81.18;37.13;;;5.10;99.90;;;;;;5054062;28;20022;-73
2021/12/06 04:00:56;;;;;;;69.53;33.00;;;5.10;99.90;;;;;;5054165;28;20078;-73
2021/12/06 04:03:26;;;;;;;80.97;37.03;;;5.10;99.90;;;;;;5054139;28;20100;-73
2021/12/06 04:05:53;;;;;;;93.55;42.65;;;5.10;99.90;;;;;;5053297;28;20079;-73
2021/12/06 04:08:19;;;;;;;118.10;50.33;;;5.10;99.90;;;;;;5053647;28;20028;-73
2021/12/06 04:10:45;;;;;;;78.43;35.88;;;5.10;99.90;;;;;;5054098;28;20037;-73
2021/12/06 04:13:11;;;;;;;99.25;44.50;;;5.00;99.90;;;;;;5053873;28;20017;-73
2021/12/06 04:15:40;;;;;;;144.95;62.88;;;5.10;99.90;;;;;;5053736;28;20024;-73
2021/12/06 04:18:07;;;;;;;142.75;64.05;;;5.00;99.90;;;;;;5053572;28;20029;-73
2021/12/06 04:20:34;;;;;;;159.70;73.32;;;5.10;99.90;;;;;;5053538;28;20120;-73
2021/12/06 04:23:02;;;;;;;115.70;53.63;;;5.10;99.90;;;;;;5053727;28;20025;-73
2021/12/06 04:25:28;;;;;;;101.55;46.60;;;5.10;99.90;;;;;;5053637;28;20028;-73
2021/12/06 04:27:56;;;;;;;78.32;36.65;;;5.10;99.90;;;;;;5053451;28;20029;-73
2021/12/06 04:30:25;;;;;;;87.40;39.95;;;5.00;99.90;;;;;;5053820;28;20028;-73
2021/12/06 04:32:53;;;;;;;83.65;38.65;;;5.00;99.90;;;;;;5053307;28;20114;-73
2021/12/06 04:35:20;;;;;;;77.25;37.03;;;5.00;99.90;;;;;;5053702;28;20013;-73
2021/12/06 04:37:46;;;;;;;81.13;36.33;;;5.00;99.90;;;;;;5053374;28;20056;-73
2021/12/06 04:40:13;;;;;;;76.30;36.25;;;5.00;99.90;;;;;;5052680;28;20056;-73
2021/12/06 04:42:40;;;;;;;77.60;36.70;;;5.00;99.90;;;;;;5052864;28;20549;-74
2021/12/06 04:45:07;;;;;;;84.60;40.15;;;5.00;99.90;;;;;;5053938;28;20025;-73
2021/12/06 04:47:33;;;;;;;80.60;40.78;;;5.00;99.90;;;;;;5053273;28;20033;-74
2021/12/06 04:49:59;;;;;;;76.20;34.25;;;5.00;99.90;;;;;;5059970;28;20421;-73
2021/12/06 04:52:25;;;;;;;72.97;37.80;;;5.00;99.90;;;;;;5060098;28;20051;-74
2021/12/06 04:54:55;;;;;;;75.00;36.75;;;5.00;99.90;;;;;;5059618;28;20017;-73
2021/12/06 04:57:29;;;;;;;64.18;33.13;;;5.00;99.90;;;;;;5060046;28;20052;-73
2021/12/06 05:00:00;;;;;;;58.75;29.02;;;5.00;99.90;;;;;;5059980;28;20531;-73
2021/12/06 05:02:34;;;;;;;61.30;31.30;;;5.00;99.90;;;;;;5059229;28;20406;-73
2021/12/06 05:05:07;;;;;;;54.63;28.00;;;5.00;99.90;;;;;;5060216;28;20028;-73
2021/12/06 05:07:40;;;;;;;58.83;30.15;;;5.00;99.90;;;;;;5059336;28;20025;-73
2021/12/06 05:10:08;;;;;;;70.13;36.30;;;5.00;99.90;;;;;;5060022;28;20349;-73
2021/12/06 05:12:34;;;;;;;58.58;34.75;;;4.90;99.90;;;;;;5059461;28;20033;-73
2021/12/06 05:15:00;;;;;;;55.38;30.05;;;5.00;99.90;;;;;;5059334;28;20371;-74
2021/12/06 05:17:28;;;;;;;48.30;28.13;;;5.00;99.90;;;;;;5059921;28;20040;-73
2021/12/06 05:19:55;;;;;;;50.10;27.55;;;5.00;99.90;;;;;;5060004;28;20042;-73
2021/12/06 05:22:22;;;;;;;57.47;30.08;;;5.00;99.90;;;;;;5059536;28;20468;-73
2021/12/06 05:24:48;;;;;;;70.07;32.83;;;4.90;99.90;;;;;;5059693;28;20405;-73
2021/12/06 05:27:14;;;;;;;71.43;35.42;;;4.90;99.90;;;;;;5059718;28;20115;-75
2021/12/06 05:29:45;;;;;;;63.58;34.65;;;4.90;99.90;;;;;;5060085;28;20587;-73
2021/12/06 05:32:11;;;;;;;75.53;37.55;;;4.90;99.90;;;;;;5059760;28;20021;-73
2021/12/06 05:34:39;;;;;;;72.03;36.92;;;4.90;99.90;;;;;;5059935;28;20028;-73
2021/12/06 05:37:08;;;;;;;70.28;35.70;;;4.90;99.90;;;;;;5059321;28;20102;-73
2021/12/06 05:39:34;;;;;;;80.38;39.30;;;4.90;99.90;;;;;;5059486;28;20031;-73
2021/12/06 05:42:03;;;;;;;67.03;35.25;;;4.90;99.90;;;;;;5059933;28;20045;-73
2021/12/06 05:44:29;;;;;;;74.30;37.25;;;4.90;99.90;;;;;;5059814;28;20047;-73
2021/12/06 05:46:55;;;;;;;58.80;31.17;;;4.90;99.90;;;;;;5059691;28;20029;-73
2021/12/06 05:49:22;;;;;;;74.68;38.67;;;4.80;99.90;;;;;;5059346;28;20021;-73
2021/12/06 05:51:48;;;;;;;65.90;35.33;;;4.90;99.90;;;;;;5059617;28;20096;-73
2021/12/06 05:54:14;;;;;;;70.20;38.53;;;4.80;99.90;;;;;;5059775;28;20075;-73
2021/12/06 05:56:40;;;;;;;63.08;35.10;;;4.80;99.90;;;;;;5059573;28;20029;-73
2021/12/06 05:59:06;;;;;;;56.42;32.25;;;4.80;99.90;;;;;;5060066;28;20032;-73
2021/12/06 06:01:32;;;;;;;57.35;29.65;;;4.80;99.90;;;;;;5055548;28;20029;-73
2021/12/06 06:04:01;;;;;;;51.17;27.80;;;4.80;99.90;;;;;;5056088;28;20429;-73
2021/12/06 06:06:32;;;;;;;46.13;24.92;;;4.70;99.90;;;;;;5056157;28;20024;-73
2021/12/06 06:08:58;;;;;;;40.13;24.20;;;4.70;99.90;;;;;;5056155;28;20047;-73
2021/12/06 06:11:25;;;;;;;39.45;22.42;;;4.60;99.90;;;;;;5055995;28;20299;-73
2021/12/06 06:13:51;;;;;;;116.18;52.15;;;4.50;99.90;;;;;;5056053;28;20028;-73
2021/12/06 06:16:20;;;;;;;67.00;36.85;;;4.50;99.90;;;;;;5056336;28;20021;-73
2021/12/06 06:18:47;;;;;;;76.78;41.65;;;4.50;99.90;;;;;;5055727;28;20029;-74
2021/12/06 06:21:13;;;;;;;72.40;41.58;;;4.50;99.90;;;;;;5055924;28;20020;-73
2021/12/06 06:23:39;;;;;;;73.35;40.03;;;4.50;99.90;;;;;;5056250;28;20025;-73
2021/12/06 06:26:05;;;;;;;56.97;29.95;;;4.50;99.90;;;;;;5055579;28;20547;-73
2021/12/06 06:28:30;;;;;;;70.82;39.08;;;4.40;99.90;;;;;;5055731;28;20107;-73
2021/12/06 06:30:56;;;;;;;70.95;35.88;;;4.40;99.90;;;;;;5055999;28;20497;-74
2021/12/06 06:33:22;;;;;;;60.25;32.72;;;4.40;99.90;;;;;;5055501;28;20411;-73
2021/12/06 06:35:48;;;;;;;56.25;30.48;;;4.40;99.90;;;;;;5055880;28;20021;-73
2021/12/06 06:38:14;;;;;;;61.10;33.38;;;4.40;99.90;;;;;;5055343;28;20031;-73
2021/12/06 06:40:40;;;;;;;80.28;40.78;;;4.40;99.90;;;;;;5055565;28;20053;-73
2021/12/06 06:43:07;;;;;;;85.45;40.17;;;4.30;99.90;;;;;;5055592;28;20094;-73
2021/12/06 06:45:33;;;;;;;92.05;44.33;;;4.30;99.90;;;;;;5055424;28;20444;-73
2021/12/06 06:47:59;;;;;;;78.10;37.75;;;4.30;99.90;;;;;;5055623;28;20064;-73
2021/12/06 06:50:25;;;;;;;78.95;40.30;;;4.30;99.90;;;;;;5055620;28;20021;-73
2021/12/06 06:52:52;;;;;;;70.55;32.22;;;4.30;99.90;;;;;;5055241;28;20021;-73
2021/12/06 06:55:19;;;;;;;80.82;38.97;;;4.30;99.90;;;;;;5055663;28;20025;-73
2021/12/06 06:57:45;;;;;;;104.70;45.30;;;4.20;99.90;;;;;;5055337;28;20128;-73
2021/12/06 07:00:22;;;;;;;95.90;45.72;;;4.20;99.90;;;;;;5055249;28;20440;-73
2021/12/06 07:02:48;;;;;;;103.78;51.42;;;4.20;99.90;;;;;;5055101;28;20100;-73
2021/12/06 07:05:14;;;;;;;97.97;50.75;;;4.20;99.90;;;;;;5055715;28;20155;-73
2021/12/06 07:07:41;;;;;;;93.25;49.50;;;4.20;99.90;;;;;;5055116;28;20025;-73
2021/12/06 07:10:07;;;;;;;92.22;44.00;;;4.20;99.90;;;;;;5055477;28;20103;-73
2021/12/06 07:12:41;;;;;;;114.13;52.10;;;4.20;99.90;;;;;;5053911;28;20075;-73
2021/12/06 07:15:07;;;;;;;287.83;119.75;;;4.20;99.90;;;;;;5055021;28;20059;-73
2021/12/06 07:17:33;;;;;;;231.57;108.47;;;4.20;99.90;;;;;;5054799;28;20056;-73
2021/12/06 07:20:00;;;;;;;111.53;57.22;;;4.30;99.90;;;;;;5054917;28;20403;-73
2021/12/06 07:22:26;;;;;;;76.32;41.63;;;4.30;99.90;;;;;;5054834;28;20060;-73
2021/12/06 07:24:52;;;;;;;89.38;44.00;;;4.20;99.90;;;;;;5054929;28;20075;-73
2021/12/06 07:27:18;;;;;;;104.53;50.30;;;4.20;99.90;;;;;;5054424;28;20032;-73
2021/12/06 07:29:44;;;;;;;143.32;64.40;;;4.20;99.90;;;;;;5054631;28;20488;-73
2021/12/06 07:32:10;;;;;;;229.43;105.22;;;4.20;99.90;;;;;;5054584;28;20100;-73
2021/12/06 07:34:36;;;;;;;219.32;95.93;;;4.20;99.90;;;;;;5054704;28;20056;-73
2021/12/06 07:37:04;;;;;;;161.27;67.13;;;4.30;99.90;;;;;;5054799;28;20067;-74
2021/12/06 07:39:30;;;;;;;165.10;76.45;;;4.20;99.90;;;;;;5054692;28;20348;-73
2021/12/06 07:41:56;;;;;;;192.00;94.18;;;4.20;99.90;;;;;;5054567;28;20045;-73
2021/12/06 07:44:22;;;;;;;158.38;75.47;;;4.20;99.90;;;;;;5054640;28;20025;-74
2021/12/06 07:46:51;;;;;;;143.88;71.82;;;4.10;99.90;;;;;;5054474;28;20028;-73
2021/12/06 07:49:19;;;;;;;126.70;59.78;;;4.10;99.90;;;;;;5054435;28;20028;-73
2021/12/06 07:51:45;;;;;;;120.47;54.50;;;4.10;99.90;;;;;;5054172;28;20024;-73
2021/12/06 07:54:13;;;;;;;99.72;48.70;;;4.10;99.90;;;;;;5054234;28;20051;-73
2021/12/06 07:56:40;;;;;;;100.00;47.00;;;4.10;99.90;;;;;;5054210;28;20040;-73
2021/12/06 07:59:06;;;;;;;89.50;41.30;;;4.10;99.90;;;;;;5054335;28;20017;-73
2021/12/06 08:01:31;;;;;;;115.68;51.80;;;4.10;99.90;;;;;;5054439;28;20025;-73
2021/12/06 08:03:59;;;;;;;108.63;53.75;;;4.20;99.90;;;;;;5054184;28;20021;-73
2021/12/06 08:06:26;;;;;;;101.97;52.95;;;4.20;99.90;;;;;;5054076;28;20028;-73
2021/12/06 08:08:53;;;;;;;127.80;57.45;;;4.20;99.90;;;;;;5054112;28;20025;-73
2021/12/06 08:11:21;;;;;;;109.40;51.38;;;4.30;99.90;;;;;;5053922;28;20059;-73
2021/12/06 08:13:51;;;;;;;108.03;48.85;;;4.30;99.90;;;;;;5054095;28;20025;-73
2021/12/06 08:16:23;;;;;;;101.95;46.35;;;4.30;99.90;;;;;;5053858;28;20078;-73
2021/12/06 08:18:49;;;;;;;88.35;41.83;;;4.40;99.90;;;;;;5054079;28;20052;-72
2021/12/06 08:21:18;;;;;;;96.20;48.45;;;4.30;99.90;;;;;;5054250;28;20032;-73
2021/12/06 08:23:45;;;;;;;96.15;47.20;;;4.40;99.90;;;;;;5053385;28;20029;-73
2021/12/06 08:26:13;;;;;;;107.40;49.70;;;4.30;99.90;;;;;;5054258;28;20021;-73
2021/12/06 08:28:40;;;;;;;99.00;47.03;;;4.30;99.90;;;;;;5053829;28;20060;-73
2021/12/06 08:31:07;;;;;;;97.03;46.25;;;4.30;99.90;;;;;;5053433;28;20399;-73
2021/12/06 08:33:34;;;;;;;92.53;44.88;;;4.30;99.90;;;;;;5053911;28;20052;-73
2021/12/06 08:36:00;;;;;;;84.47;43.50;;;4.30;99.90;;;;;;5053841;28;20108;-73
2021/12/06 08:38:30;;;;;;;85.88;39.40;;;4.30;99.90;;;;;;5053344;28;20024;-73
2021/12/06 08:40:57;;;;;;;57.97;30.02;;;4.30;99.90;;;;;;5053181;28;20380;-73
2021/12/06 08:43:24;;;;;;;76.53;38.67;;;4.20;99.90;;;;;;5053777;28;20090;-73
2021/12/06 08:45:57;;;;;;;79.70;41.53;;;4.20;99.90;;;;;;5053240;28;20032;-73
2021/12/06 08:48:27;;;;;;;81.45;43.28;;;4.20;99.90;;;;;;5053646;28;20059;-73
2021/12/06 08:50:55;;;;;;;80.90;42.30;;;4.20;99.90;;;;;;5053731;28;20032;-73
2021/12/06 08:53:22;;;;;;;85.32;43.88;;;4.30;99.90;;;;;;5053450;28;20107;-73
2021/12/06 08:55:48;;;;;;;61.83;33.85;;;4.20;99.90;;;;;;5053556;28;20017;-73
2021/12/06 08:58:15;;;;;;;82.40;40.33;;;4.20;99.90;;;;;;5053459;28;20063;-72
2021/12/06 09:00:41;;;;;;;97.60;49.85;;;4.30;99.90;;;;;;5053557;28;20056;-72
2021/12/06 09:03:07;;;;;;;66.22;35.22;;;4.30;99.90;;;;;;5053441;28;20025;-72
2021/12/06 09:05:41;;;;;;;75.78;37.95;;;4.20;99.90;;;;;;5053394;28;20503;-72
2021/12/06 09:08:08;;;;;;;60.72;34.75;;;4.20;99.90;;;;;;5053624;28;20021;-73
2021/12/06 09:10:35;;;;;;;62.63;35.75;;;4.20;99.90;;;;;;5053147;28;20025;-72
2021/12/06 09:13:02;;;;;;;64.32;35.15;;;4.10;99.90;;;;;;5053313;28;20051;-72
2021/12/06 09:15:28;;;;;;;67.55;37.05;;;4.10;99.90;;;;;;5053449;28;20028;-72
2021/12/06 09:17:54;;;;;;;66.55;35.83;;;4.10;99.90;;;;;;5053033;28;20033;-72
2021/12/06 09:20:24;;;;;;;65.38;36.05;;;4.00;99.90;;;;;;5053254;28;20013;-72
2021/12/06 09:22:51;;;;;;;79.57;43.17;;;4.00;99.90;;;;;;5053428;28;20017;-72
2021/12/06 09:25:18;;;;;;;71.90;41.33;;;4.00;99.90;;;;;;5053103;28;20104;-72
2021/12/06 09:27:46;;;;;;;81.07;41.70;;;4.00;99.90;;;;;;5052813;28;20472;-72
2021/12/06 09:30:18;;;;;;;69.28;36.70;;;4.00;99.90;;;;;;5052987;28;20032;-72
2021/12/06 09:32:44;;;;;;;70.82;37.97;;;4.00;99.90;;;;;;5053357;28;20062;-72
2021/12/06 09:35:14;;;;;;;100.22;52.20;;;4.00;99.90;;;;;;5053635;28;20074;-72
2021/12/06 09:37:40;;;;;;;79.38;43.40;;;4.10;99.90;;;;;;5056995;28;20035;-72
2021/12/06 09:40:07;;;;;;;73.90;38.80;;;4.00;99.90;;;;;;5056518;28;20028;-72
2021/12/06 09:42:36;;;;;;;82.85;44.22;;;4.00;99.90;;;;;;5057139;28;20041;-72
2021/12/06 09:45:06;;;;;;;54.00;32.70;;;4.00;99.90;;;;;;5057000;28;20021;-72
2021/12/06 09:47:32;;;;;;;48.70;29.25;;;4.00;99.90;;;;;;5056313;28;20051;-72
2021/12/06 09:49:59;;;;;;;64.00;34.25;;;4.00;99.90;;;;;;5057030;28;20049;-72
2021/12/06 09:52:25;;;;;;;59.28;31.08;;;4.00;99.90;;;;;;5056979;28;20082;-72
2021/12/06 09:54:51;;;;;;;73.50;41.17;;;3.90;99.90;;;;;;5056461;28;20021;-72
2021/12/06 09:57:18;;;;;;;62.13;33.80;;;3.90;99.90;;;;;;5056643;28;20096;-72
2021/12/06 09:59:45;;;;;;;96.97;50.28;;;3.90;99.90;;;;;;5056470;28;20028;-73
2021/12/06 10:02:20;;;;;;;68.28;37.95;;;4.00;99.90;;;;;;5055638;28;20032;-72
2021/12/06 10:04:53;;;;;;;101.93;48.47;;;3.90;99.90;;;;;;5054120;28;20021;-72
2021/12/06 10:07:21;;;;;;;68.10;39.17;;;4.00;99.90;;;;;;5053541;28;20028;-73
2021/12/06 10:09:49;;;;;;;118.35;53.13;;;3.90;99.90;;;;;;5055754;28;20044;-73
2021/12/06 10:12:18;;;;;;;229.63;97.05;;;3.90;99.90;;;;;;5055763;28;20021;-73
2021/12/06 10:14:47;;;;;;;179.20;71.20;;;4.00;99.90;;;;;;5055556;28;20066;-73
2021/12/06 10:17:18;;;;;;;147.20;62.58;;;3.90;99.90;;;;;;5055349;28;20025;-73
2021/12/06 10:19:46;;;;;;;189.70;80.87;;;3.90;99.90;;;;;;5055714;28;20028;-73
2021/12/06 10:22:13;;;;;;;219.40;94.53;;;3.90;99.90;;;;;;5055836;28;20451;-71
2021/12/06 10:24:41;;;;;;;472.10;215.30;;;3.90;99.90;;;;;;5056194;28;20017;-73
2021/12/06 10:27:14;;;;;;;276.35;113.70;;;3.90;99.90;;;;;;5055566;28;20033;-73
2021/12/06 10:29:46;;;;;;;252.88;98.93;;;3.90;99.90;;;;;;5056003;28;20028;-73
2021/12/06 10:32:19;;;;;;;100.50;47.28;;;3.90;99.90;;;;;;5056098;28;20017;-73
2021/12/06 10:34:50;;;;;;;159.35;72.47;;;3.90;99.90;;;;;;5055925;28;20017;-71
2021/12/06 10:37:55;;;;;;;83.68;42.70;;;4.00;99.90;;;;;;5055861;28;20032;-71
2021/12/06 10:40:27;;;;;;;100.10;52.90;;;4.00;99.90;;;;;;5033212;28;20032;-71
2021/12/06 10:42:55;;;;;;;110.75;60.28;;;4.00;99.90;;;;;;5033694;28;20033;-71
2021/12/06 10:45:30;;;;;;;109.50;57.20;;;4.00;99.90;;;;;;5033628;28;20034;-71
2021/12/06 10:48:25;;;;;;;120.03;63.88;;;4.10;99.90;;;;;;5033102;28;20037;-71
2021/12/06 10:50:51;;;;;;;99.57;50.83;;;4.10;99.90;;;;;;5033136;28;20025;-71
2021/12/06 10:53:19;;;;;;;65.13;37.40;;;4.10;99.90;;;;;;5033392;28;20064;-72
2021/12/06 10:55:46;;;;;;;61.05;39.05;;;4.00;99.90;;;;;;5033321;28;20037;-73
2021/12/06 10:58:16;;;;;;;64.82;36.90;;;4.00;99.90;;;;;;5033266;28;20033;-72
2021/12/06 11:00:52;;;;;;;70.00;40.70;;;4.10;99.90;;;;;;5032802;28;20133;-72
2021/12/06 11:03:47;;;;;;;77.85;44.08;;;4.00;99.90;;;;;;5032741;28;20755;-73
2021/12/06 11:06:20;;;;;;;72.18;40.55;;;4.00;99.90;;;;;;5030005;28;20025;-73
2021/12/06 11:08:50;;;;;;;64.88;39.78;;;4.10;99.90;;;;;;5032762;28;20531;-73
2021/12/06 11:11:24;;;;;;;63.22;38.33;;;4.10;99.90;;;;;;5032701;28;20029;-73
2021/12/06 11:13:59;;;;;;;68.00;41.15;;;4.00;99.90;;;;;;5040194;28;20132;-73
2021/12/06 11:16:28;;;;;;;65.63;38.72;;;4.10;99.90;;;;;;5054944;28;20066;-73
2021/12/06 11:19:03;;;;;;;59.30;35.78;;;4.00;99.90;;;;;;5054735;28;20024;-73
2021/12/06 11:21:44;;;;;;;46.03;27.98;;;4.00;99.90;;;;;;5054921;28;20021;-73
2021/12/06 11:24:24;;;;;;;47.80;31.33;;;3.90;99.90;;;;;;5054768;28;20104;-73
2021/12/06 11:26:58;;;;;;;66.47;38.72;;;3.90;99.90;;;;;;5054436;28;20025;-73
2021/12/06 11:29:37;;;;;;;49.92;31.30;;;3.90;99.90;;;;;;5054750;28;20032;-73
2021/12/06 11:32:16;;;;;;;65.70;40.42;;;3.90;99.90;;;;;;5054586;28;20071;-73
2021/12/06 11:34:49;;;;;;;55.70;33.30;;;3.90;99.90;;;;;;5054737;28;20441;-73
2021/12/06 11:37:43;;;;;;;60.80;35.47;;;4.00;99.90;;;;;;5054539;28;20473;-73
2021/12/06 11:40:13;;;;;;;62.85;37.08;;;3.90;99.90;;;;;;5045819;28;20037;-73
2021/12/06 11:42:59;;;;;;;59.72;36.58;;;3.90;99.90;;;;;;5054569;28;20132;-72
2021/12/06 11:45:46;;;;;;;68.20;42.72;;;3.90;99.90;;;;;;5054318;28;20443;-73
2021/12/06 11:48:28;;;;;;;90.47;51.40;;;3.90;99.90;;;;;;5053972;28;20025;-73
2021/12/06 11:51:00;;;;;;;116.50;65.05;;;3.90;99.90;;;;;;5054317;28;20025;-73
2021/12/06 11:53:30;;;;;;;78.55;43.92;;;3.90;99.90;;;;;;5053508;28;20480;-73
2021/12/06 11:56:02;;;;;;;72.15;43.35;;;3.90;99.90;;;;;;5054214;28;20021;-73
2021/12/06 11:58:28;;;;;;;67.53;40.90;;;3.90;99.90;;;;;;5053207;28;20028;-73
2021/12/06 12:01:02;;;;;;;91.97;47.40;;;3.90;99.90;;;;;;5054017;28;20075;-73
2021/12/06 12:03:33;;;;;;;65.57;39.08;;;3.90;99.90;;;;;;5053569;28;20025;-73
2021/12/06 12:05:59;;;;;;;65.50;39.42;;;3.80;99.90;;;;;;5053737;28;20368;-73
2021/12/06 12:08:30;;;;;;;99.32;50.53;;;3.80;99.90;;;;;;5054114;28;20037;-73
2021/12/06 12:10:56;;;;;;;102.35;52.72;;;3.90;99.90;;;;;;5053707;28;20083;-73
2021/12/06 12:13:39;;;;;;;142.73;72.05;;;3.90;99.90;;;;;;5053924;28;20021;-73
2021/12/06 12:16:08;;;;;;;135.93;69.57;;;3.90;99.90;;;;;;5053734;28;20029;-73
2021/12/06 12:18:36;;;;;;;116.43;61.42;;;3.80;99.90;;;;;;5052564;28;20348;-73
2021/12/06 12:21:03;;;;;;;100.88;55.60;;;3.80;99.90;;;;;;5053118;28;20456;-73
2021/12/06 12:23:32;;;;;;;150.32;68.88;;;3.80;99.90;;;;;;5053183;28;20052;-72
2021/12/06 12:26:12;;;;;;;166.07;82.75;;;3.80;99.90;;;;;;5052861;28;20059;-72
2021/12/06 12:28:51;;;;;;;118.95;62.33;;;3.80;99.90;;;;;;5052857;28;20025;-73
2021/12/06 12:31:19;;;;;;;80.68;46.33;;;3.90;99.90;;;;;;5053033;28;20039;-72
2021/12/06 12:33:47;;;;;;;83.70;48.13;;;3.80;99.90;;;;;;5052660;28;20368;-73
2021/12/06 12:36:16;;;;;;;147.73;68.90;;;3.80;99.90;;;;;;5052731;28;20460;-73
2021/12/06 12:38:44;;;;;;;193.48;95.50;;;3.80;99.90;;;;;;5052626;28;20544;-72
2021/12/06 12:41:13;;;;;;;154.85;83.43;;;3.80;99.90;;;;;;5053084;28;20479;-73
2021/12/06 12:43:43;;;;;;;90.00;50.22;;;3.80;99.90;;;;;;5052764;28;20028;-73
2021/12/06 12:46:19;;;;;;;83.57;44.30;;;3.80;99.90;;;;;;5052943;28;20021;-73
2021/12/06 12:49:07;;;;;;;92.85;50.05;;;3.80;99.90;;;;;;5052938;28;20040;-73
2021/12/06 12:51:40;;;;;;;102.63;53.80;;;3.80;99.90;;;;;;5048524;28;20121;-73
2021/12/06 12:54:18;;;;;;;92.57;50.30;;;3.80;99.90;;;;;;5053104;28;20021;-73
2021/12/06 12:57:00;;;;;;;74.25;42.17;;;3.80;99.90;;;;;;5052719;28;20033;-73